Time;durP1;ratioP1;P1;durP2;ratioP2;P2;SDS_P1;SDS_P2;PMS_P1;PMS_P2;Temp;Humidity;BMP_temperature;BMP_pressure;BME280_temperature;BME280_humidity;BME280_pressure;Samples;Min_cycle;Max_cycle;Signal;HPM_P1;HPM_P2
2021/05/06 00:29:51;;;;;;;19.10;2.93;;;4.70;84.50;;;;;;5055605;28;20190;-84
2021/05/06 00:34:04;;;;;;;16.90;4.90;;;4.50;84.60;;;;;;5052634;28;20184;-83
2021/05/06 00:36:31;;;;;;;11.17;2.73;;;4.50;84.70;;;;;;5052688;28;20172;-83
2021/05/06 00:39:01;;;;;;;15.83;2.93;;;4.40;85.10;;;;;;5052611;28;20291;-83
2021/05/06 01:05:23;;;;;;;8.83;2.83;;;4.30;85.20;;;;;;5056408;28;20238;-83
2021/05/06 01:07:58;;;;;;;8.27;3.17;;;4.40;84.80;;;;;;5056441;28;20301;-83
2021/05/06 01:13:05;;;;;;;16.23;3.70;;;4.30;85.30;;;;;;5057835;28;20170;-84
2021/05/06 01:15:30;;;;;;;11.97;4.00;;;4.30;85.10;;;;;;5057618;28;20182;-84
2021/05/06 01:17:56;;;;;;;12.03;3.00;;;4.20;85.00;;;;;;5054779;28;20214;-84
2021/05/06 01:20:22;;;;;;;19.70;3.83;;;4.20;85.30;;;;;;5055684;28;20214;-84
2021/05/06 01:22:47;;;;;;;15.23;3.47;;;4.20;85.20;;;;;;5054785;28;20659;-83
2021/05/06 01:25:15;;;;;;;12.23;2.67;;;4.20;85.20;;;;;;5054503;28;20211;-83
2021/05/06 01:27:58;;;;;;;13.90;3.63;;;4.20;85.00;;;;;;5054459;28;20271;-83
2021/05/06 01:30:38;;;;;;;14.57;3.47;;;4.20;85.10;;;;;;5055660;28;20668;-83
2021/05/06 01:33:21;;;;;;;11.93;3.50;;;4.20;85.30;;;;;;5056062;28;20555;-83
2021/05/06 01:35:54;;;;;;;18.60;3.90;;;4.20;85.30;;;;;;5054430;28;20175;-83
2021/05/06 01:41:14;;;;;;;17.27;3.50;;;4.10;85.40;;;;;;5055683;28;20167;-83
2021/05/06 02:00:20;;;;;;;12.57;2.50;;;4.10;85.40;;;;;;5053889;28;20220;-83
2021/05/06 02:02:47;;;;;;;4.80;2.20;;;4.00;85.20;;;;;;5053175;28;20164;-83
2021/05/06 02:05:14;;;;;;;13.27;4.27;;;3.90;85.50;;;;;;5053382;28;20216;-83
2021/05/06 02:07:42;;;;;;;22.17;3.47;;;3.90;85.50;;;;;;5055008;28;20679;-84
2021/05/06 02:10:11;;;;;;;18.77;3.90;;;4.00;85.50;;;;;;5055108;28;20202;-84
2021/05/06 02:12:38;;;;;;;15.27;3.80;;;4.00;85.40;;;;;;5053638;28;20262;-83
2021/05/06 02:15:11;;;;;;;10.37;2.90;;;3.90;85.40;;;;;;5055064;28;20204;-84
2021/05/06 02:17:38;;;;;;;17.03;3.10;;;3.90;85.70;;;;;;5055345;28;20181;-83
2021/05/06 02:20:06;;;;;;;19.90;4.83;;;4.00;85.50;;;;;;5110292;22;20233;-83
2021/05/06 02:22:32;;;;;;;15.13;3.50;;;4.00;85.50;;;;;;5054729;28;20175;-83
2021/05/06 02:24:58;;;;;;;18.53;3.23;;;4.00;85.90;;;;;;5054422;28;20205;-83
2021/05/06 02:27:23;;;;;;;15.27;2.90;;;4.00;85.90;;;;;;5054380;28;20253;-83
2021/05/06 02:29:49;;;;;;;16.57;3.87;;;4.10;85.80;;;;;;5054334;28;20243;-83
2021/05/06 02:32:15;;;;;;;12.47;3.47;;;4.10;85.30;;;;;;5054555;28;20175;-83
2021/05/06 02:34:41;;;;;;;13.63;2.80;;;4.10;84.90;;;;;;5054466;28;20203;-84
2021/05/06 02:37:10;;;;;;;17.73;3.27;;;4.00;85.20;;;;;;5054439;28;20584;-83
2021/05/06 02:39:36;;;;;;;12.80;3.83;;;4.00;85.20;;;;;;5054127;28;20219;-83
2021/05/06 02:42:02;;;;;;;12.83;3.33;;;4.00;84.90;;;;;;5054117;28;20172;-83
2021/05/06 02:44:28;;;;;;;15.37;3.43;;;3.90;85.10;;;;;;5036215;28;20199;-84
2021/05/06 02:46:53;;;;;;;7.77;2.70;;;3.90;85.40;;;;;;5036145;28;20549;-84
2021/05/06 02:49:21;;;;;;;17.80;3.23;;;3.90;85.20;;;;;;5054186;28;20190;-83
2021/05/06 02:51:53;;;;;;;13.53;2.67;;;3.90;85.10;;;;;;5036105;28;20659;-83
2021/05/06 02:54:19;;;;;;;10.57;2.57;;;3.90;85.20;;;;;;5053969;28;20155;-83
2021/05/06 02:57:02;;;;;;;11.47;3.50;;;3.90;85.00;;;;;;5053811;28;20674;-83
2021/05/06 03:04:55;;;;;;;12.57;3.43;;;3.80;85.30;;;;;;5053899;28;20192;-84
2021/05/06 03:07:25;;;;;;;17.00;3.73;;;3.80;85.50;;;;;;5035878;28;20173;-83
2021/05/06 03:10:02;;;;;;;12.97;2.70;;;3.80;85.50;;;;;;5054160;28;20192;-83
2021/05/06 03:12:58;;;;;;;27.57;4.30;;;3.70;85.40;;;;;;5053599;28;20231;-83
2021/05/06 03:23:23;;;;;;;11.00;2.47;;;3.70;85.70;;;;;;5053431;28;20192;-83
2021/05/06 03:25:49;;;;;;;10.53;2.73;;;3.80;85.10;;;;;;5035923;28;20544;-83
2021/05/06 03:28:23;;;;;;;11.03;2.93;;;3.80;85.20;;;;;;5053477;28;20167;-83
2021/05/06 03:44:35;;;;;;;13.83;2.87;;;3.70;85.50;;;;;;5053195;28;20190;-83
2021/05/06 04:21:30;;;;;;;20.30;2.90;;;3.80;84.90;;;;;;5052944;28;20214;-84
2021/05/06 04:27:12;;;;;;;8.77;2.70;;;3.70;85.30;;;;;;5055812;28;20156;-83
2021/05/06 04:37:43;;;;;;;3.97;2.03;;;3.80;85.40;;;;;;5056916;28;20179;-83
2021/05/06 04:53:48;;;;;;;8.20;2.77;;;4.30;84.50;;;;;;5056122;28;20203;-83
2021/05/06 05:06:32;;;;;;;12.00;3.10;;;4.30;84.30;;;;;;5056224;28;20170;-83
2021/05/06 05:09:15;;;;;;;10.03;2.77;;;4.30;84.40;;;;;;5037970;28;20178;-84
2021/05/06 05:20:04;;;;;;;10.50;2.40;;;4.50;83.80;;;;;;5056204;28;20240;-83
2021/05/06 05:25:03;;;;;;;9.53;1.90;;;4.60;83.50;;;;;;5055720;28;20313;-83
2021/05/06 05:27:29;;;;;;;6.77;2.57;;;4.70;83.70;;;;;;5055643;28;20537;-83
2021/05/06 05:29:55;;;;;;;11.73;3.30;;;4.70;83.40;;;;;;5037572;28;20198;-84
2021/05/06 05:32:21;;;;;;;5.87;2.27;;;4.80;83.60;;;;;;5055457;28;20183;-83
2021/05/06 05:34:55;;;;;;;12.13;2.60;;;4.80;84.10;;;;;;5055434;28;20167;-83
2021/05/06 05:37:23;;;;;;;8.90;2.63;;;4.80;83.80;;;;;;5055386;28;20160;-84
2021/05/06 05:42:24;;;;;;;10.93;2.90;;;4.90;84.60;;;;;;5055690;28;20650;-84
2021/05/06 05:45:25;;;;;;;7.90;2.50;;;5.00;84.10;;;;;;5037407;28;20198;-84
2021/05/06 05:48:21;;;;;;;12.63;2.53;;;5.00;84.20;;;;;;5055041;28;20206;-83
2021/05/06 05:55:58;;;;;;;17.47;3.37;;;5.30;83.50;;;;;;5055192;28;20536;-83
2021/05/06 05:58:23;;;;;;;13.47;3.27;;;5.30;83.20;;;;;;5037150;28;20175;-83
2021/05/06 06:00:49;;;;;;;9.37;2.73;;;5.40;83.00;;;;;;5036988;28;20234;-84
2021/05/06 06:03:14;;;;;;;12.37;2.60;;;5.50;82.30;;;;;;5037006;28;20225;-83
2021/05/06 06:05:40;;;;;;;13.20;2.20;;;5.60;82.70;;;;;;5054835;28;20545;-83
2021/05/06 06:08:06;;;;;;;9.43;3.10;;;5.60;81.70;;;;;;5036958;28;20164;-84
2021/05/06 06:10:32;;;;;;;15.70;3.47;;;5.50;81.10;;;;;;5054742;28;20191;-83
2021/05/06 06:12:58;;;;;;;13.23;3.03;;;5.70;81.70;;;;;;5054812;28;20175;-83
2021/05/06 06:17:59;;;;;;;7.37;3.13;;;5.70;82.00;;;;;;5055245;28;20164;-83
2021/05/06 06:20:27;;;;;;;10.97;2.90;;;5.70;82.50;;;;;;5036582;28;20761;-82
2021/05/06 06:22:53;;;;;;;21.73;3.43;;;5.80;81.20;;;;;;5054810;28;20172;-83
2021/05/06 06:25:18;;;;;;;11.03;2.90;;;5.80;82.00;;;;;;5036521;28;20202;-83
2021/05/06 06:27:44;;;;;;;10.80;2.77;;;5.80;81.10;;;;;;5054463;28;20258;-83
2021/05/06 06:30:12;;;;;;;8.93;2.77;;;5.70;81.30;;;;;;5054390;28;20187;-83
2021/05/06 06:32:37;;;;;;;10.83;3.43;;;5.60;80.80;;;;;;5054441;28;20167;-83
2021/05/06 06:35:03;;;;;;;12.53;2.67;;;5.50;82.00;;;;;;5054573;28;20175;-83
2021/05/06 06:37:29;;;;;;;12.63;2.70;;;5.40;81.30;;;;;;5054213;28;20758;-83
2021/05/06 06:39:54;;;;;;;9.60;3.00;;;5.60;82.00;;;;;;5036313;28;20213;-83
2021/05/06 06:42:20;;;;;;;12.63;3.13;;;5.80;82.00;;;;;;5036623;28;20229;-84
2021/05/06 06:44:45;;;;;;;9.90;2.73;;;5.80;82.00;;;;;;5036304;28;20286;-83
2021/05/06 06:47:11;;;;;;;8.93;3.37;;;5.80;81.40;;;;;;5054192;28;20238;-84
2021/05/06 06:49:39;;;;;;;10.70;3.03;;;5.90;81.30;;;;;;5053241;28;20223;-84
2021/05/06 06:52:09;;;;;;;8.97;3.43;;;6.00;81.40;;;;;;5054125;28;20168;-83
2021/05/06 06:54:36;;;;;;;9.33;2.63;;;6.20;82.00;;;;;;5036149;28;20181;-83
2021/05/06 06:57:05;;;;;;;10.77;3.17;;;6.20;81.30;;;;;;5036117;28;20178;-83
2021/05/06 06:59:30;;;;;;;12.17;3.57;;;6.20;81.70;;;;;;5035917;28;20204;-84
2021/05/06 07:01:56;;;;;;;16.87;3.60;;;6.30;80.40;;;;;;5053809;28;20183;-83
2021/05/06 07:04:22;;;;;;;10.07;3.80;;;6.30;81.20;;;;;;5054043;28;20204;-83
2021/05/06 07:06:47;;;;;;;11.77;3.20;;;6.40;82.70;;;;;;5035902;28;20664;-84
2021/05/06 07:09:13;;;;;;;11.20;2.93;;;6.50;81.70;;;;;;5053594;28;20238;-84
2021/05/06 07:11:39;;;;;;;14.53;3.60;;;6.50;80.80;;;;;;5054041;28;20163;-84
2021/05/06 07:14:05;;;;;;;14.50;4.10;;;6.60;81.90;;;;;;5053653;28;20183;-84
2021/05/06 07:16:32;;;;;;;15.43;4.83;;;6.60;80.60;;;;;;5053725;28;20245;-83
2021/05/06 07:18:58;;;;;;;9.10;2.77;;;6.60;80.70;;;;;;5035475;28;20658;-83
2021/05/06 07:21:25;;;;;;;10.23;3.10;;;6.80;80.10;;;;;;5035787;28;20174;-83
2021/05/06 07:23:55;;;;;;;13.23;2.60;;;6.80;79.60;;;;;;5035498;28;20204;-83
2021/05/06 07:26:24;;;;;;;13.90;3.47;;;6.90;80.40;;;;;;5054038;28;20171;-83
2021/05/06 07:28:50;;;;;;;12.77;2.93;;;7.00;79.80;;;;;;5053322;28;20236;-83
2021/05/06 07:31:16;;;;;;;9.10;3.43;;;6.90;79.00;;;;;;5053711;28;20637;-83
2021/05/06 07:33:43;;;;;;;12.33;3.30;;;7.00;79.30;;;;;;5053660;28;20205;-83
2021/05/06 07:36:10;;;;;;;10.93;2.63;;;7.10;78.80;;;;;;5053419;28;20178;-83
2021/05/06 07:38:36;;;;;;;14.73;2.70;;;7.10;78.60;;;;;;5035583;28;20676;-83
2021/05/06 07:41:02;;;;;;;10.60;2.87;;;7.10;77.90;;;;;;5035559;28;20202;-83
2021/05/06 07:43:30;;;;;;;7.47;2.53;;;7.10;78.00;;;;;;5053337;28;20233;-83
2021/05/06 07:45:56;;;;;;;18.03;3.27;;;7.20;77.00;;;;;;5035342;28;20709;-83
2021/05/06 07:48:22;;;;;;;13.87;3.00;;;7.30;79.40;;;;;;5035429;28;20212;-83
2021/05/06 07:50:48;;;;;;;8.17;2.33;;;7.40;77.60;;;;;;5053306;28;20221;-83
2021/05/06 07:53:16;;;;;;;7.60;2.27;;;7.50;77.90;;;;;;5053170;28;20178;-83
2021/05/06 07:55:42;;;;;;;15.20;3.03;;;7.50;77.40;;;;;;5053057;28;20252;-83
2021/05/06 07:58:09;;;;;;;16.57;3.27;;;7.50;77.00;;;;;;5053099;28;20198;-83
2021/05/06 08:00:35;;;;;;;7.00;2.10;;;7.70;77.60;;;;;;5055271;28;20205;-84
2021/05/06 08:03:04;;;;;;;8.67;2.70;;;7.70;75.10;;;;;;5039395;28;20646;-83
2021/05/06 08:05:30;;;;;;;8.77;2.50;;;7.70;76.10;;;;;;5057355;28;20654;-83
2021/05/06 08:07:56;;;;;;;7.33;2.43;;;7.80;76.00;;;;;;5057114;28;20175;-83
2021/05/06 08:10:23;;;;;;;10.67;3.50;;;7.80;76.30;;;;;;5057124;28;20266;-83
2021/05/06 08:12:49;;;;;;;11.97;2.70;;;7.70;77.00;;;;;;5056991;28;20167;-83
2021/05/06 08:15:15;;;;;;;11.67;2.10;;;7.90;76.40;;;;;;5039075;28;20178;-83
2021/05/06 08:17:42;;;;;;;12.17;2.83;;;8.20;78.10;;;;;;5039161;28;20232;-83
2021/05/06 08:20:13;;;;;;;12.43;2.80;;;8.30;75.90;;;;;;5056905;28;20218;-84
2021/05/06 08:22:39;;;;;;;11.07;3.27;;;8.30;75.40;;;;;;5057402;28;20153;-84
2021/05/06 08:25:07;;;;;;;16.90;3.00;;;8.30;76.20;;;;;;5056817;28;20202;-84
2021/05/06 08:27:33;;;;;;;14.80;3.30;;;8.40;75.60;;;;;;5056669;28;20244;-83
2021/05/06 08:30:02;;;;;;;7.40;2.53;;;8.30;74.50;;;;;;5056768;28;20195;-84
2021/05/06 08:32:28;;;;;;;17.43;2.23;;;8.60;72.60;;;;;;5056736;28;20663;-84
2021/05/06 08:34:54;;;;;;;10.57;2.13;;;8.50;70.90;;;;;;5056717;28;20164;-83
2021/05/06 08:37:20;;;;;;;9.10;2.57;;;8.50;71.10;;;;;;5038743;28;20172;-83
2021/05/06 08:39:45;;;;;;;8.97;2.50;;;8.80;72.50;;;;;;5057100;28;20199;-83
2021/05/06 08:42:13;;;;;;;7.33;2.30;;;8.70;68.30;;;;;;5038810;28;20267;-83
2021/05/06 08:44:40;;;;;;;6.67;1.80;;;8.60;70.80;;;;;;5056517;28;20200;-83
2021/05/06 08:47:12;;;;;;;8.67;2.10;;;8.80;71.40;;;;;;5038683;28;20180;-83
2021/05/06 08:49:39;;;;;;;6.13;2.33;;;9.20;70.90;;;;;;5056356;28;20180;-83
2021/05/06 08:52:10;;;;;;;7.37;1.93;;;9.00;69.20;;;;;;5038440;28;20179;-84
2021/05/06 08:54:41;;;;;;;12.37;2.80;;;8.80;69.70;;;;;;5038535;28;20172;-84
2021/05/06 08:57:06;;;;;;;9.10;2.00;;;9.00;70.10;;;;;;5056426;28;20279;-84
2021/05/06 08:59:32;;;;;;;15.27;2.70;;;9.00;69.20;;;;;;5038227;28;20230;-84
2021/05/06 09:01:58;;;;;;;8.10;2.70;;;9.20;68.60;;;;;;5056176;28;20651;-84
2021/05/06 09:04:29;;;;;;;13.43;2.40;;;9.20;66.60;;;;;;5056047;28;20565;-84
2021/05/06 09:07:00;;;;;;;11.03;2.20;;;9.10;63.90;;;;;;5056108;28;20679;-84
2021/05/06 09:09:30;;;;;;;6.83;1.77;;;9.30;66.10;;;;;;5038137;28;20275;-84
2021/05/06 09:11:57;;;;;;;7.63;2.30;;;9.30;63.00;;;;;;5055304;28;20306;-84
2021/05/06 09:14:42;;;;;;;10.17;1.97;;;9.30;64.80;;;;;;5038112;28;20187;-84
2021/05/06 09:17:26;;;;;;;22.33;3.03;;;9.40;65.80;;;;;;5038124;28;20532;-84
2021/05/06 09:20:10;;;;;;;6.10;2.00;;;9.50;63.00;;;;;;5055727;28;20634;-84
2021/05/06 09:22:44;;;;;;;7.30;2.57;;;9.30;62.60;;;;;;5037948;28;20172;-84
2021/05/06 09:25:39;;;;;;;6.47;1.67;;;9.20;64.40;;;;;;5055785;28;20222;-84
2021/05/06 09:28:09;;;;;;;5.37;1.90;;;9.40;63.70;;;;;;5034423;28;20670;-84
2021/05/06 09:31:06;;;;;;;6.33;1.87;;;9.80;63.80;;;;;;5055524;28;20195;-85
2021/05/06 09:33:32;;;;;;;7.03;2.20;;;9.70;62.80;;;;;;5037758;28;20200;-84
2021/05/06 09:36:14;;;;;;;6.57;1.70;;;9.80;63.50;;;;;;5037578;28;20678;-86
2021/05/06 09:38:43;;;;;;;5.43;2.03;;;9.70;59.70;;;;;;5055435;28;20164;-87
2021/05/06 09:41:09;;;;;;;7.80;2.00;;;10.10;59.80;;;;;;5037376;28;20687;-87
2021/05/06 09:43:41;;;;;;;6.17;1.93;;;10.20;60.80;;;;;;5037313;28;20203;-86
2021/05/06 09:46:31;;;;;;;2.90;1.43;;;9.40;68.40;;;;;;5037434;28;20642;-86
2021/05/06 09:49:01;;;;;;;3.63;1.30;;;8.70;67.60;;;;;;5037242;28;20172;-86
2021/05/06 09:51:49;;;;;;;8.03;1.53;;;8.60;71.50;;;;;;5055086;28;20152;-86
2021/05/06 09:54:23;;;;;;;8.53;1.53;;;9.00;69.70;;;;;;5037253;28;20199;-86
2021/05/06 09:57:02;;;;;;;3.73;1.60;;;9.10;70.40;;;;;;5037110;28;20199;-86
2021/05/06 09:59:37;;;;;;;7.83;1.80;;;9.20;67.00;;;;;;5037049;28;20230;-87
2021/05/06 10:02:10;;;;;;;7.00;1.80;;;9.20;66.80;;;;;;5037075;28;20710;-87
2021/05/06 10:04:37;;;;;;;10.23;2.57;;;9.40;68.00;;;;;;5054858;28;20287;-87
2021/05/06 10:07:15;;;;;;;3.83;1.90;;;9.10;67.90;;;;;;5055011;28;20171;-86
2021/05/06 10:09:55;;;;;;;7.10;2.20;;;8.80;66.90;;;;;;5036997;28;20265;-88
2021/05/06 10:12:24;;;;;;;9.97;2.77;;;8.70;67.70;;;;;;5054831;28;20235;-89
2021/05/06 10:14:50;;;;;;;4.20;1.57;;;9.00;65.50;;;;;;5036942;28;20173;-88
2021/05/06 10:17:18;;;;;;;13.17;2.27;;;9.20;65.40;;;;;;5036864;28;20207;-88
2021/05/06 10:19:44;;;;;;;11.60;2.03;;;9.30;68.30;;;;;;5036773;28;20302;-88
2021/05/06 10:22:11;;;;;;;6.97;2.20;;;9.80;66.10;;;;;;5036818;28;20218;-89
2021/05/06 10:24:41;;;;;;;8.43;2.37;;;9.70;64.40;;;;;;5035550;28;20269;-88
2021/05/06 10:27:10;;;;;;;9.67;2.30;;;9.80;63.00;;;;;;5036777;28;20643;-88
2021/05/06 10:29:36;;;;;;;7.80;2.43;;;9.80;64.40;;;;;;5036519;28;20239;-88
2021/05/06 10:32:02;;;;;;;8.43;2.57;;;9.60;65.30;;;;;;5036826;28;20173;-88
2021/05/06 10:34:32;;;;;;;16.60;2.70;;;9.40;66.10;;;;;;5036476;28;20177;-88
2021/05/06 10:36:58;;;;;;;8.20;2.00;;;9.40;66.80;;;;;;5054323;28;20197;-88
2021/05/06 10:39:38;;;;;;;7.07;2.10;;;9.50;68.20;;;;;;5054321;28;20199;-88
2021/05/06 10:42:25;;;;;;;9.47;2.33;;;8.80;67.90;;;;;;5054658;28;20160;-87
2021/05/06 10:45:21;;;;;;;8.93;2.30;;;7.90;67.80;;;;;;5053839;28;20199;-87
2021/05/06 10:47:56;;;;;;;15.53;2.70;;;7.60;71.90;;;;;;5036175;28;20255;-87
2021/05/06 10:50:36;;;;;;;5.90;1.80;;;7.40;72.90;;;;;;5054140;28;20187;-87
2021/05/06 10:53:04;;;;;;;13.00;2.27;;;7.50;74.10;;;;;;5036201;28;20167;-88
2021/05/06 10:55:47;;;;;;;4.60;2.00;;;7.50;73.10;;;;;;5036056;28;20176;-88
2021/05/06 10:58:28;;;;;;;10.13;2.17;;;7.50;75.40;;;;;;5036075;28;20172;-87
2021/05/06 11:01:02;;;;;;;4.53;1.90;;;7.40;75.10;;;;;;5035898;28;20203;-87
2021/05/06 11:03:29;;;;;;;12.23;2.73;;;7.20;75.20;;;;;;5053634;28;20232;-87
2021/05/06 11:05:54;;;;;;;10.70;2.60;;;7.20;75.40;;;;;;5035926;28;20174;-87
2021/05/06 11:08:23;;;;;;;10.60;2.03;;;7.70;75.40;;;;;;5035819;28;20578;-87
2021/05/06 11:10:49;;;;;;;6.77;2.70;;;8.30;74.00;;;;;;5053587;28;20257;-88
2021/05/06 11:13:16;;;;;;;9.80;2.43;;;8.90;75.90;;;;;;5035756;28;20204;-88
2021/05/06 11:15:43;;;;;;;8.23;2.47;;;9.20;73.90;;;;;;5053609;28;20222;-88
2021/05/06 11:18:32;;;;;;;12.37;2.20;;;9.30;73.00;;;;;;5035836;28;20172;-88
2021/05/06 11:20:58;;;;;;;14.53;2.33;;;9.30;71.30;;;;;;5035374;28;20215;-88
2021/05/06 11:23:26;;;;;;;9.20;2.00;;;9.50;71.80;;;;;;5035588;28;20550;-88
2021/05/06 11:26:01;;;;;;;4.67;2.27;;;9.50;71.10;;;;;;5053485;28;20647;-88
2021/05/06 11:28:29;;;;;;;12.57;2.20;;;9.40;70.10;;;;;;5053496;28;20619;-88
2021/05/06 11:30:56;;;;;;;5.20;1.87;;;8.90;67.60;;;;;;5035740;28;20224;-88
2021/05/06 11:33:22;;;;;;;10.60;2.43;;;8.70;67.60;;;;;;5053418;28;20168;-88
2021/05/06 11:36:12;;;;;;;12.00;2.03;;;8.40;65.90;;;;;;5035249;28;20183;-88
2021/05/06 11:38:42;;;;;;;5.43;1.83;;;8.20;64.20;;;;;;5035503;28;20251;-88
2021/05/06 11:41:15;;;;;;;6.53;2.00;;;8.40;68.10;;;;;;5035425;28;20628;-88
2021/05/06 11:43:58;;;;;;;6.67;2.33;;;9.10;67.70;;;;;;5053224;28;20198;-89
2021/05/06 11:46:29;;;;;;;7.97;2.27;;;9.50;65.40;;;;;;5053186;28;20636;-88
2021/05/06 11:49:03;;;;;;;8.10;2.37;;;10.00;67.00;;;;;;5053284;28;20200;-89
2021/05/06 11:51:31;;;;;;;9.40;2.60;;;10.00;63.80;;;;;;5053620;28;20149;-89
2021/05/06 11:54:08;;;;;;;6.83;1.80;;;9.80;69.60;;;;;;5036608;28;20276;-90
2021/05/06 11:56:36;;;;;;;8.93;1.97;;;9.70;68.60;;;;;;5035565;28;20754;-90
2021/05/06 11:59:04;;;;;;;7.90;2.30;;;10.10;67.10;;;;;;5035500;28;20213;-89
2021/05/06 12:01:30;;;;;;;9.73;2.60;;;10.20;65.10;;;;;;5035678;28;20185;-89
2021/05/06 12:03:56;;;;;;;7.17;2.20;;;10.30;65.80;;;;;;5035174;28;20204;-89
2021/05/06 12:06:36;;;;;;;6.70;1.80;;;10.30;65.60;;;;;;5035245;28;20171;-88
2021/05/06 12:09:05;;;;;;;4.73;1.90;;;10.30;64.70;;;;;;5035470;28;20252;-90
2021/05/06 12:11:40;;;;;;;5.93;1.87;;;10.30;62.80;;;;;;5035270;28;20180;-90
2021/05/06 12:14:09;;;;;;;4.03;1.50;;;10.30;63.00;;;;;;5053053;28;20162;-89
2021/05/06 12:16:36;;;;;;;8.47;2.10;;;10.10;61.20;;;;;;5035301;28;20267;-90
2021/05/06 12:19:12;;;;;;;8.30;2.27;;;9.70;61.60;;;;;;5034958;28;20184;-90
2021/05/06 12:21:47;;;;;;;9.47;2.20;;;9.40;62.40;;;;;;5053033;28;20229;-90
2021/05/06 12:24:33;;;;;;;9.57;1.87;;;9.60;64.10;;;;;;5052873;28;20581;-90
2021/05/06 12:27:14;;;;;;;8.07;2.17;;;10.10;63.30;;;;;;5035142;28;20168;-90
2021/05/06 12:29:40;;;;;;;5.63;1.47;;;10.70;64.80;;;;;;5035035;28;20192;-89
2021/05/06 12:32:06;;;;;;;12.30;2.43;;;11.30;60.60;;;;;;5035042;28;20173;-89
2021/05/06 12:34:35;;;;;;;11.83;1.87;;;10.80;59.90;;;;;;5034986;28;20187;-89
2021/05/06 12:37:01;;;;;;;6.73;1.70;;;11.00;61.80;;;;;;5035088;28;20230;-89
2021/05/06 12:39:28;;;;;;;7.03;1.70;;;11.40;58.60;;;;;;5034884;28;20204;-90
2021/05/06 12:41:57;;;;;;;7.93;2.00;;;11.70;57.30;;;;;;5034886;28;20275;-89
2021/05/06 12:44:52;;;;;;;3.47;1.50;;;12.00;57.00;;;;;;5034694;28;20212;-90
2021/05/06 12:47:20;;;;;;;4.87;1.63;;;12.10;52.00;;;;;;5006454;28;20185;-90
2021/05/06 12:50:06;;;;;;;3.50;1.53;;;12.70;54.80;;;;;;5056351;28;20188;-90
2021/05/06 12:52:36;;;;;;;4.70;1.60;;;12.20;48.80;;;;;;5038425;28;20199;-89
2021/05/06 12:55:17;;;;;;;3.57;1.50;;;12.00;53.60;;;;;;5038558;28;20734;-89
2021/05/06 12:57:44;;;;;;;9.80;2.00;;;11.80;52.70;;;;;;5038500;28;20623;-90
2021/05/06 13:00:23;;;;;;;8.60;1.53;;;11.60;51.30;;;;;;5056146;28;20192;-89
2021/05/06 13:02:49;;;;;;;3.73;1.67;;;11.50;52.50;;;;;;5038349;28;20183;-89
2021/05/06 13:05:38;;;;;;;7.20;1.50;;;11.20;51.50;;;;;;5055865;28;20258;-89
2021/05/06 13:08:05;;;;;;;5.77;1.60;;;10.80;53.10;;;;;;5056073;28;20226;-89
2021/05/06 13:10:35;;;;;;;6.20;1.80;;;10.70;54.60;;;;;;5038287;28;20200;-89
2021/05/06 13:13:02;;;;;;;9.20;2.10;;;10.90;56.40;;;;;;5038983;28;20598;-89
2021/05/06 13:15:29;;;;;;;6.03;1.83;;;11.50;56.40;;;;;;5038449;28;20176;-90
2021/05/06 13:17:58;;;;;;;8.37;1.60;;;11.90;56.40;;;;;;5038354;28;20243;-89
2021/05/06 13:20:27;;;;;;;8.10;1.83;;;12.20;53.50;;;;;;5037898;28;20617;-89
2021/05/06 13:23:05;;;;;;;5.80;1.73;;;12.20;54.30;;;;;;5037972;28;20180;-89
2021/05/06 13:25:48;;;;;;;6.07;1.83;;;11.80;53.50;;;;;;5037839;28;20290;-88
2021/05/06 13:28:18;;;;;;;5.50;1.70;;;11.80;54.10;;;;;;5037764;28;20164;-87
2021/05/06 13:30:47;;;;;;;7.40;1.67;;;11.50;54.90;;;;;;5055516;28;20184;-87
2021/05/06 13:33:21;;;;;;;4.03;2.00;;;12.20;56.30;;;;;;5037641;28;20226;-87
2021/05/06 13:36:09;;;;;;;5.93;1.60;;;12.40;51.50;;;;;;5055786;28;20170;-87
2021/05/06 13:38:58;;;;;;;5.63;1.67;;;12.40;53.80;;;;;;5037596;28;20659;-87
2021/05/06 13:41:26;;;;;;;7.50;2.00;;;11.70;54.50;;;;;;5037493;28;20284;-87
2021/05/06 13:43:54;;;;;;;6.03;1.57;;;11.90;55.00;;;;;;5055457;28;20686;-87
2021/05/06 13:46:21;;;;;;;5.83;1.70;;;12.20;53.30;;;;;;5055278;28;20195;-86
2021/05/06 13:48:47;;;;;;;8.77;2.10;;;11.40;53.70;;;;;;5055120;28;20160;-87
2021/05/06 13:51:14;;;;;;;6.57;1.87;;;11.60;54.90;;;;;;5037345;28;20183;-88
2021/05/06 13:53:41;;;;;;;6.27;1.40;;;11.50;53.30;;;;;;5037640;28;20180;-87
2021/05/06 13:56:08;;;;;;;2.67;1.53;;;10.90;52.20;;;;;;5055403;28;20172;-87
2021/05/06 13:58:35;;;;;;;3.93;1.97;;;10.50;55.20;;;;;;5054741;28;20176;-87
2021/05/06 14:01:02;;;;;;;10.03;2.17;;;10.90;54.50;;;;;;5054915;28;20199;-87
2021/05/06 14:03:28;;;;;;;5.43;1.63;;;11.00;53.40;;;;;;5037104;28;20622;-87
2021/05/06 14:05:54;;;;;;;5.73;1.70;;;11.10;54.40;;;;;;5037163;28;20199;-87
2021/05/06 14:08:20;;;;;;;9.30;1.70;;;11.40;52.90;;;;;;5037112;28;20659;-87
2021/05/06 14:10:47;;;;;;;4.10;1.57;;;11.50;51.90;;;;;;5036935;28;20188;-87
2021/05/06 14:13:17;;;;;;;5.27;1.80;;;11.40;51.30;;;;;;5037184;28;20176;-88
2021/05/06 14:15:44;;;;;;;10.43;2.37;;;11.70;54.00;;;;;;5054740;28;20289;-88
2021/05/06 14:18:10;;;;;;;9.50;3.07;;;11.60;53.90;;;;;;5054887;28;20168;-87
2021/05/06 14:20:36;;;;;;;3.07;1.20;;;11.50;52.20;;;;;;5036476;28;20234;-87
2021/05/06 14:23:03;;;;;;;6.30;1.60;;;11.30;53.90;;;;;;5054723;28;20176;-88
2021/05/06 14:25:29;;;;;;;6.03;1.70;;;11.60;53.50;;;;;;5036641;28;20204;-88
2021/05/06 14:27:54;;;;;;;9.10;1.90;;;11.80;53.60;;;;;;5036675;28;20263;-88
2021/05/06 14:30:20;;;;;;;11.17;2.33;;;12.10;52.00;;;;;;5036711;28;20188;-87
2021/05/06 14:32:46;;;;;;;8.30;1.50;;;12.20;53.40;;;;;;5054767;28;20164;-87
2021/05/06 14:35:12;;;;;;;8.87;1.60;;;11.70;51.60;;;;;;5037384;28;20176;-87
2021/05/06 14:37:37;;;;;;;8.07;2.53;;;11.50;51.90;;;;;;5036538;28;20184;-87
2021/05/06 14:40:06;;;;;;;7.47;2.17;;;11.60;51.80;;;;;;5036400;28;20282;-87
2021/05/06 14:42:32;;;;;;;6.07;1.67;;;11.60;48.50;;;;;;5036408;28;20180;-87
2021/05/06 14:44:58;;;;;;;5.23;2.33;;;11.70;52.10;;;;;;5036167;28;20200;-87
2021/05/06 14:47:23;;;;;;;9.23;1.97;;;11.60;48.30;;;;;;5054096;28;20169;-87
2021/05/06 14:49:49;;;;;;;6.20;1.90;;;11.40;49.40;;;;;;5053990;28;20622;-88
2021/05/06 14:52:15;;;;;;;8.40;2.00;;;11.40;51.30;;;;;;5036045;28;20168;-88
2021/05/06 14:54:41;;;;;;;5.17;1.70;;;11.50;50.20;;;;;;5036314;28;20686;-88
2021/05/06 14:57:07;;;;;;;9.60;2.10;;;11.60;51.00;;;;;;5054178;28;20175;-88
2021/05/06 14:59:32;;;;;;;8.67;1.80;;;11.70;49.90;;;;;;5036018;28;20191;-88
2021/05/06 15:01:58;;;;;;;6.70;2.07;;;11.50;48.20;;;;;;5036234;28;20176;-88
2021/05/06 15:04:24;;;;;;;6.80;1.73;;;11.30;51.20;;;;;;5035978;28;20220;-88
2021/05/06 15:06:49;;;;;;;3.90;1.50;;;11.30;52.00;;;;;;5035846;28;20172;-88
2021/05/06 15:09:15;;;;;;;6.20;1.93;;;11.20;51.90;;;;;;5053385;28;20188;-89
2021/05/06 15:11:41;;;;;;;6.47;1.73;;;11.30;52.20;;;;;;5053799;28;20184;-90
2021/05/06 15:14:06;;;;;;;4.57;1.73;;;11.50;51.30;;;;;;5057671;23;20318;-86
2021/05/06 15:16:32;;;;;;;6.30;2.10;;;11.50;51.90;;;;;;5053373;28;20255;-86
2021/05/06 15:18:58;;;;;;;7.57;1.70;;;11.30;51.70;;;;;;5035498;28;20210;-84
2021/05/06 15:21:24;;;;;;;6.33;1.93;;;11.30;51.40;;;;;;5035518;28;20215;-85
2021/05/06 15:23:49;;;;;;;3.60;1.70;;;11.20;50.50;;;;;;5053162;28;20257;-85
2021/05/06 15:26:15;;;;;;;7.23;1.60;;;11.20;50.30;;;;;;5053797;28;20174;-85
2021/05/06 15:28:40;;;;;;;6.00;2.03;;;11.30;51.10;;;;;;5035351;28;20176;-85
2021/05/06 15:31:06;;;;;;;6.90;1.90;;;11.20;50.90;;;;;;5053540;28;20168;-85
2021/05/06 15:33:32;;;;;;;4.57;1.60;;;11.30;49.40;;;;;;5053135;28;20203;-85
2021/05/06 15:35:58;;;;;;;8.07;2.03;;;11.30;50.50;;;;;;5035246;28;20172;-85
2021/05/06 15:38:24;;;;;;;6.23;1.70;;;11.40;51.90;;;;;;5053096;28;20366;-85
2021/05/06 15:40:53;;;;;;;3.77;1.40;;;11.00;50.80;;;;;;5035238;28;20648;-85
2021/05/06 15:43:19;;;;;;;5.83;2.00;;;11.10;51.70;;;;;;5035153;28;20196;-85
2021/05/06 15:45:45;;;;;;;6.00;1.87;;;11.00;51.50;;;;;;5052945;28;20287;-85
2021/05/06 15:48:13;;;;;;;6.83;1.93;;;10.90;52.90;;;;;;5053250;28;20179;-85
2021/05/06 15:50:40;;;;;;;2.63;1.43;;;11.00;51.70;;;;;;5052913;28;20530;-85
2021/05/06 15:53:06;;;;;;;4.23;1.43;;;11.00;52.10;;;;;;5053334;28;20648;-85
2021/05/06 15:55:33;;;;;;;7.33;1.50;;;11.00;52.40;;;;;;5052907;28;20175;-85
2021/05/06 15:58:01;;;;;;;6.43;1.63;;;10.80;52.60;;;;;;5034981;28;20176;-85
2021/05/06 16:00:27;;;;;;;7.17;1.60;;;11.00;52.10;;;;;;5035051;28;20604;-83
2021/05/06 16:03:00;;;;;;;9.33;2.00;;;11.20;52.30;;;;;;5053078;28;20239;-85
2021/05/06 16:05:42;;;;;;;4.87;1.60;;;11.40;50.60;;;;;;5051050;28;20207;-85
2021/05/06 16:08:09;;;;;;;3.10;1.47;;;11.30;49.10;;;;;;5053216;28;20168;-83
2021/05/06 16:10:35;;;;;;;5.17;1.93;;;11.30;48.90;;;;;;5053268;28;20172;-84
2021/05/06 16:13:01;;;;;;;5.87;2.13;;;11.40;50.70;;;;;;5034785;28;20214;-85
2021/05/06 16:15:28;;;;;;;6.63;1.57;;;11.20;51.10;;;;;;5052772;28;20225;-84
2021/05/06 16:17:54;;;;;;;8.03;1.70;;;11.20;50.20;;;;;;5035047;28;20175;-85